Time;durP1;ratioP1;P1;durP2;ratioP2;P2;SDS_P1;SDS_P2;PMS_P1;PMS_P2;Temp;Humidity;BMP_temperature;BMP_pressure;BME280_temperature;BME280_humidity;BME280_pressure;Samples;Min_cycle;Max_cycle;Signal;HPM_P1;HPM_P2
2022/03/29 00:00:38;;;;;;;38.00;25.40;;;;;;;12.76;62.81;99774.53;5054668;28;20583;-79
2022/03/29 00:03:10;;;;;;;40.13;25.57;;;;;;;12.75;62.74;99775.56;5054343;28;20205;-82
2022/03/29 00:05:38;;;;;;;43.97;27.03;;;;;;;12.64;63.02;99768.97;5055107;28;20239;-84
2022/03/29 00:08:08;;;;;;;51.67;27.90;;;;;;;12.58;62.99;99772.44;5053956;28;20722;-83
2022/03/29 00:10:37;;;;;;;42.90;27.13;;;;;;;12.55;62.80;99766.69;5054681;28;20208;-83
2022/03/29 00:13:05;;;;;;;43.13;26.80;;;;;;;12.48;63.22;99766.69;5053767;28;20657;-84
2022/03/29 00:15:32;;;;;;;37.57;26.73;;;;;;;12.46;63.55;99763.38;5053143;28;20193;-83
2022/03/29 00:17:59;;;;;;;46.67;27.27;;;;;;;12.46;63.55;99758.06;5053017;28;20200;-84
2022/03/29 00:20:30;;;;;;;43.57;27.63;;;;;;;12.44;63.73;99762.78;5054029;28;20239;-84
2022/03/29 00:22:58;;;;;;;43.93;27.60;;;;;;;12.40;63.68;99753.56;5053740;28;20204;-83
2022/03/29 00:25:26;;;;;;;46.20;29.63;;;;;;;12.27;64.13;99736.72;5085931;28;20200;-84
2022/03/29 00:27:56;;;;;;;46.67;28.43;;;;;;;12.28;64.72;99765.81;5054070;28;20254;-84
2022/03/29 00:30:23;;;;;;;48.50;28.90;;;;;;;12.23;65.25;99762.09;5052888;28;20203;-85
2022/03/29 00:32:49;;;;;;;43.73;28.53;;;;;;;12.15;65.71;99755.13;5053563;28;20652;-85
2022/03/29 00:35:16;;;;;;;42.23;28.97;;;;;;;11.91;65.47;99741.47;5053493;28;20196;-88
2022/03/29 00:37:44;;;;;;;48.77;28.90;;;;;;;11.95;66.40;99754.22;5054004;28;20193;-88
2022/03/29 00:40:14;;;;;;;49.43;29.30;;;;;;;11.94;66.43;99760.56;5037390;28;20254;-87
2022/03/29 00:42:42;;;;;;;41.87;27.60;;;;;;;11.96;66.72;99755.03;5054262;28;20192;-88
2022/03/29 00:45:12;;;;;;;42.27;28.03;;;;;;;11.94;66.32;99749.91;5053754;28;20214;-88
2022/03/29 00:47:39;;;;;;;42.57;28.47;;;;;;;11.96;66.17;99753.19;5054159;28;20623;-88
2022/03/29 00:50:07;;;;;;;40.83;27.37;;;;;;;12.02;66.20;99743.59;5055016;28;20196;-89
2022/03/29 00:52:35;;;;;;;41.90;27.50;;;;;;;12.06;65.97;99735.03;5055501;28;20207;-89
2022/03/29 00:55:02;;;;;;;39.57;28.07;;;;;;;12.03;65.93;99727.41;5053361;28;20235;-89
2022/03/29 00:57:32;;;;;;;46.63;28.23;;;;;;;12.00;65.92;99738.47;5055201;28;20205;-89
2022/03/29 01:00:00;;;;;;;46.07;26.37;;;;;;;11.93;66.16;99729.66;5054934;28;20203;-89
2022/03/29 01:02:29;;;;;;;36.53;25.77;;;;;;;11.97;65.72;99730.88;5055532;28;20203;-87
2022/03/29 01:04:57;;;;;;;43.13;27.07;;;;;;;11.93;65.82;99713.69;5055191;28;20579;-89
2022/03/29 01:07:27;;;;;;;39.53;25.03;;;;;;;11.93;66.33;99719.00;5055426;28;20262;-88
2022/03/29 01:09:56;;;;;;;34.87;25.23;;;;;;;11.88;66.70;99716.09;5054167;28;20259;-88
2022/03/29 01:12:28;;;;;;;38.97;25.77;;;;;;;11.85;66.53;99713.84;5052826;28;20291;-88
2022/03/29 01:14:58;;;;;;;38.33;24.70;;;;;;;11.85;66.03;99711.19;5055060;28;20274;-89
2022/03/29 01:17:43;;;;;;;44.53;26.33;;;;;;;11.84;66.24;99708.72;5053536;28;20203;-85
2022/03/29 01:20:16;;;;;;;37.83;24.67;;;;;;;11.69;66.73;99698.22;5053863;28;20200;-86
2022/03/29 01:22:46;;;;;;;37.13;23.70;;;;;;;11.62;66.67;99700.00;5054437;28;20234;-86
2022/03/29 01:25:17;;;;;;;40.13;22.97;;;;;;;11.49;66.92;99693.78;5053900;28;20198;-86
2022/03/29 01:27:45;;;;;;;36.40;23.17;;;;;;;11.41;66.82;99694.75;5052837;28;20203;-86
2022/03/29 01:30:13;;;;;;;38.73;22.77;;;;;;;11.33;67.29;99691.44;5053578;28;20199;-84
2022/03/29 01:32:45;;;;;;;38.23;22.50;;;;;;;11.34;67.60;99680.59;5053719;28;20239;-83
2022/03/29 01:35:14;;;;;;;39.03;24.23;;;;;;;11.39;67.24;99672.84;5052449;28;20221;-84
2022/03/29 01:37:41;;;;;;;35.23;22.53;;;;;;;11.40;67.68;99674.50;5053457;28;20203;-85
2022/03/29 01:40:13;;;;;;;32.70;22.73;;;;;;;11.39;67.33;99666.72;5052422;28;20202;-85
2022/03/29 01:42:41;;;;;;;36.33;23.67;;;;;;;11.38;67.58;99665.91;5053547;28;20230;-85
2022/03/29 01:45:09;;;;;;;35.00;21.30;;;;;;;11.34;67.38;99659.31;5052185;28;20304;-86
2022/03/29 01:47:36;;;;;;;35.10;21.23;;;;;;;11.36;67.16;99659.97;5052387;28;20583;-85
2022/03/29 01:50:03;;;;;;;33.80;21.30;;;;;;;11.37;67.28;99660.75;5052492;28;20198;-85
2022/03/29 01:52:30;;;;;;;30.77;20.77;;;;;;;11.28;67.21;99644.16;5052406;28;20272;-82
2022/03/29 01:54:58;;;;;;;36.73;22.20;;;;;;;11.39;66.88;99656.88;5051973;28;20661;-84
2022/03/29 01:57:30;;;;;;;32.57;21.53;;;;;;;11.39;67.50;99640.94;5051273;28;20202;-84
2022/03/29 02:02:44;;;;;;;37.27;22.27;;;;;;;11.38;67.81;99643.78;5053725;28;20189;-83
2022/03/29 02:05:10;;;;;;;34.47;21.53;;;;;;;11.39;67.55;99640.94;5052878;28;20203;-82
2022/03/29 02:07:39;;;;;;;28.77;21.97;;;;;;;11.40;67.77;99637.28;5052374;28;20214;-84
2022/03/29 02:10:07;;;;;;;36.13;23.03;;;;;;;11.41;67.78;99636.25;5051451;28;20673;-84
2022/03/29 02:12:36;;;;;;;30.93;23.13;;;;;;;11.39;67.08;99624.97;5051739;28;20195;-83
2022/03/29 02:15:04;;;;;;;34.70;23.57;;;;;;;11.41;67.21;99628.28;5051750;28;20233;-83
2022/03/29 02:17:30;;;;;;;31.90;22.50;;;;;;;11.39;67.23;99622.31;5051894;28;20717;-83
2022/03/29 02:19:58;;;;;;;36.57;23.07;;;;;;;11.38;67.00;99628.66;5052118;28;20198;-83
2022/03/29 02:22:34;;;;;;;38.23;24.37;;;;;;;11.37;66.80;99616.38;5051671;28;20591;-83
2022/03/29 02:25:01;;;;;;;43.27;24.03;;;;;;;11.32;67.43;99621.50;5051141;28;20198;-84
2022/03/29 02:27:28;;;;;;;41.67;24.63;;;;;;;11.25;67.56;99617.97;5052026;28;20275;-84
2022/03/29 02:29:56;;;;;;;34.63;22.70;;;;;;;11.16;67.63;99619.16;5052097;28;20194;-84
2022/03/29 02:32:23;;;;;;;47.90;23.67;;;;;;;11.17;67.49;99612.81;5050804;28;20210;-83
2022/03/29 02:34:49;;;;;;;41.63;23.03;;;;;;;11.18;67.65;99611.78;5051819;28;20627;-82
2022/03/29 02:37:16;;;;;;;35.20;22.60;;;;;;;11.18;68.26;99613.66;5052177;28;20202;-86
2022/03/29 02:39:43;;;;;;;33.70;22.50;;;;;;;11.07;68.53;99615.03;5053158;28;20203;-86
2022/03/29 02:42:11;;;;;;;39.67;23.00;;;;;;;10.98;68.16;99608.19;5052495;28;20202;-86
2022/03/29 02:44:37;;;;;;;36.97;22.80;;;;;;;11.10;68.14;99619.91;5051061;28;20197;-84
2022/03/29 02:47:07;;;;;;;35.77;23.10;;;;;;;11.07;68.52;99617.69;5052287;28;20203;-82
2022/03/29 02:49:34;;;;;;;38.80;23.67;;;;;;;10.99;68.44;99612.53;5052336;28;20236;-82
2022/03/29 02:52:00;;;;;;;37.97;23.10;;;;;;;10.78;68.74;99572.72;5052261;28;20256;-83
2022/03/29 02:54:28;;;;;;;33.17;22.63;;;;;;;11.02;68.48;99608.66;5051942;28;20234;-82
2022/03/29 02:56:56;;;;;;;33.33;22.60;;;;;;;10.96;68.66;99597.75;5051980;28;20197;-84
2022/03/29 02:59:23;;;;;;;38.67;23.13;;;;;;;10.87;68.66;99595.47;5051985;28;20197;-83
2022/03/29 03:01:50;;;;;;;40.33;22.80;;;;;;;10.72;68.86;99597.41;5051401;28;20563;-85
2022/03/29 03:04:18;;;;;;;42.17;23.07;;;;;;;10.65;69.31;99594.72;5050365;28;20675;-83
2022/03/29 03:06:45;;;;;;;37.07;22.77;;;;;;;10.67;69.46;99602.50;5052013;28;20302;-84
2022/03/29 03:09:12;;;;;;;38.30;22.87;;;;;;;10.69;69.51;99592.47;5051621;28;20650;-84
2022/03/29 03:11:39;;;;;;;40.80;24.03;;;;;;;10.63;69.30;99590.59;5051374;28;20202;-83
2022/03/29 03:14:08;;;;;;;35.43;22.13;;;;;;;10.57;69.29;99592.19;5051573;28;20226;-84
2022/03/29 03:16:35;;;;;;;47.33;23.57;;;;;;;10.52;69.24;99588.47;5050804;28;20203;-79
2022/03/29 03:19:02;;;;;;;41.43;23.07;;;;;;;10.38;69.84;99587.56;5052888;28;20265;-82
2022/03/29 03:21:32;;;;;;;51.77;25.13;;;;;;;10.28;70.23;99578.28;5053790;28;20195;-83
2022/03/29 03:23:59;;;;;;;39.87;24.00;;;;;;;10.25;70.82;99579.47;5055053;28;20665;-82
2022/03/29 03:26:28;;;;;;;42.47;22.93;;;;;;;10.23;71.31;99588.66;5054707;28;20197;-82
2022/03/29 03:28:55;;;;;;;40.87;22.60;;;;;;;10.24;71.00;99587.63;5055760;28;20200;-81
2022/03/29 03:31:23;;;;;;;43.20;24.30;;;;;;;10.24;71.31;99574.38;5054969;28;20200;-80
2022/03/29 03:33:50;;;;;;;54.73;25.50;;;;;;;10.26;70.78;99583.78;5054441;28;20233;-79
2022/03/29 03:36:18;;;;;;;50.33;24.90;;;;;;;10.31;70.66;99588.53;5055147;28;20192;-80
2022/03/29 03:38:46;;;;;;;56.90;25.53;;;;;;;10.28;70.79;99591.56;5054470;28;20192;-82
2022/03/29 03:41:13;;;;;;;47.27;24.20;;;;;;;10.18;70.81;99593.72;5054784;28;20205;-81
2022/03/29 03:43:40;;;;;;;45.13;24.03;;;;;;;10.06;71.01;99589.94;5054397;28;20618;-81
2022/03/29 03:46:07;;;;;;;44.10;25.33;;;;;;;9.89;71.54;99593.81;5054509;28;20670;-81
2022/03/29 03:48:36;;;;;;;40.67;24.93;;;;;;;9.80;72.63;99594.97;5054956;28;20259;-82
2022/03/29 03:51:06;;;;;;;49.50;25.30;;;;;;;9.67;72.85;99592.16;5036664;28;20266;-79
2022/03/29 03:53:34;;;;;;;39.97;23.70;;;;;;;9.62;73.06;99594.53;5054056;28;20665;-80
2022/03/29 03:56:03;;;;;;;54.40;26.30;;;;;;;9.63;73.42;99588.22;5052803;28;20585;-79
2022/03/29 03:58:30;;;;;;;51.23;26.40;;;;;;;9.68;72.62;99594.63;5053954;28;20258;-79
2022/03/29 04:00:57;;;;;;;57.20;25.83;;;;;;;9.70;73.20;99595.25;5054056;28;20203;-78
2022/03/29 04:03:24;;;;;;;51.03;25.63;;;;;;;9.73;74.10;99605.47;5036585;28;20197;-79
2022/03/29 04:05:52;;;;;;;53.13;25.50;;;;;;;9.70;73.54;99602.38;5053999;28;20734;-82
2022/03/29 04:08:19;;;;;;;54.73;25.50;;;;;;;9.75;72.88;99594.69;5053208;28;20208;-87
2022/03/29 04:10:46;;;;;;;57.27;27.43;;;;;;;9.76;72.34;99604.31;5055440;28;20201;-82
2022/03/29 04:13:15;;;;;;;46.80;26.30;;;;;;;9.77;72.62;99597.97;5053697;28;20205;-82
2022/03/29 04:15:43;;;;;;;53.43;28.63;;;;;;;9.80;72.45;99592.31;5071204;28;20603;-82
2022/03/29 04:18:10;;;;;;;63.70;30.63;;;;;;;9.81;72.53;99599.25;5074287;28;20663;-81
2022/03/29 04:20:37;;;;;;;59.50;29.77;;;;;;;9.81;73.21;99594.75;5073571;28;20679;-82
2022/03/29 04:23:05;;;;;;;67.03;29.80;;;;;;;9.89;73.33;99601.78;5074279;28;20199;-82
2022/03/29 04:25:32;;;;;;;65.27;30.50;;;;;;;9.95;73.12;99599.19;5073295;28;20265;-83
2022/03/29 04:27:58;;;;;;;57.87;29.00;;;;;;;10.05;72.95;99597.06;5074803;28;20200;-81
2022/03/29 04:30:28;;;;;;;63.13;31.03;;;;;;;10.07;71.88;99594.22;5072606;28;20200;-79
2022/03/29 04:32:55;;;;;;;67.20;32.27;;;;;;;10.14;71.74;99595.13;5074388;28;20572;-77
2022/03/29 04:35:22;;;;;;;71.10;31.77;;;;;;;10.17;72.47;99595.53;5073850;28;20692;-84
2022/03/29 04:37:49;;;;;;;73.90;31.10;;;;;;;10.28;71.99;99603.00;5073119;28;20199;-73
2022/03/29 04:40:16;;;;;;;65.20;32.73;;;;;;;10.41;71.43;99594.31;5073492;28;20247;-76
2022/03/29 04:42:44;;;;;;;59.13;32.00;;;;;;;10.50;70.44;99595.84;5072190;28;20198;-76
2022/03/29 04:45:12;;;;;;;69.43;32.87;;;;;;;10.62;70.07;99602.25;5072677;28;20234;-78
2022/03/29 04:47:41;;;;;;;61.67;31.90;;;;;;;10.72;70.50;99600.06;5071434;28;20258;-73
2022/03/29 04:50:09;;;;;;;60.00;31.50;;;;;;;10.85;68.85;99597.50;5072682;28;20224;-73
2022/03/29 04:52:36;;;;;;;61.10;30.67;;;;;;;10.93;69.16;99607.97;5072532;28;20580;-72
2022/03/29 04:55:04;;;;;;;74.37;29.33;;;;;;;11.05;68.98;99606.41;5069921;28;20311;-73
2022/03/29 04:57:31;;;;;;;57.70;26.97;;;;;;;11.21;68.60;99605.25;5071079;28;20205;-72
2022/03/29 04:59:58;;;;;;;51.80;26.40;;;;;;;11.44;67.36;99611.94;5070017;28;20200;-74
2022/03/29 05:02:25;;;;;;;62.33;25.50;;;;;;;11.55;66.27;99614.00;5069397;28;20201;-74
2022/03/29 05:04:53;;;;;;;51.50;26.60;;;;;;;11.89;69.10;99605.97;5067358;28;20217;-72
2022/03/29 05:07:22;;;;;;;64.27;27.73;;;;;;;12.30;66.45;99614.63;5069271;28;20264;-72
2022/03/29 05:09:49;;;;;;;47.97;22.40;;;;;;;12.75;71.24;99596.97;5069304;28;20269;-68
2022/03/29 05:12:16;;;;;;;59.60;25.60;;;;;;;13.44;69.45;99604.19;5073008;28;20199;-68
2022/03/29 05:14:43;;;;;;;49.73;23.53;;;;;;;14.17;65.30;99606.25;5072685;28;20228;-67
2022/03/29 05:17:10;;;;;;;53.10;25.77;;;;;;;14.85;62.33;99602.63;5072574;28;20236;-68
2022/03/29 05:19:36;;;;;;;51.50;25.97;;;;;;;15.49;61.01;99610.19;5072290;28;20344;-69
2022/03/29 05:22:05;;;;;;;57.30;28.50;;;;;;;16.04;52.29;99621.63;5071900;28;20671;-71
2022/03/29 05:24:32;;;;;;;76.63;30.80;;;;;;;16.22;50.99;99621.56;5072002;28;20245;-71
2022/03/29 05:26:58;;;;;;;53.47;26.27;;;;;;;16.67;51.62;99617.38;5071994;28;20191;-69
2022/03/29 05:29:28;;;;;;;44.70;25.07;;;;;;;17.06;51.13;99624.75;5072008;28;20675;-68
2022/03/29 05:31:54;;;;;;;58.20;26.60;;;;;;;17.39;46.02;99632.97;5071984;28;20228;-69
2022/03/29 05:34:22;;;;;;;51.17;26.67;;;;;;;17.29;45.42;99633.56;5072920;28;20318;-69
2022/03/29 05:36:49;;;;;;;45.40;24.47;;;;;;;17.19;45.20;99621.81;5071973;28;20576;-70
2022/03/29 05:39:18;;;;;;;47.13;24.53;;;;;;;17.31;45.12;99636.03;5072391;28;20192;-69
2022/03/29 05:41:45;;;;;;;33.20;20.70;;;;;;;17.54;49.42;99620.72;5071462;28;20188;-74
2022/03/29 05:44:11;;;;;;;38.47;18.90;;;;;;;18.01;51.12;99616.78;5071056;28;20286;-79
2022/03/29 05:49:23;;;;;;;48.23;23.07;;;;;;;18.19;45.82;99597.78;5072489;28;20183;-82
2022/03/29 05:51:52;;;;;;;50.87;23.37;;;;;;;18.62;42.79;99624.09;5072758;28;20196;-82
2022/03/29 05:54:20;;;;;;;38.90;21.90;;;;;;;18.68;44.24;99618.56;5073169;28;20574;-84
2022/03/29 05:56:47;;;;;;;33.00;19.83;;;;;;;18.81;41.69;99617.38;5072219;28;20263;-81
2022/03/29 05:59:13;;;;;;;42.57;19.17;;;;;;;19.35;44.02;99616.56;5066490;28;20736;-77
2022/03/29 06:01:40;;;;;;;46.63;20.70;;;;;;;20.07;40.82;99623.38;5051567;28;20187;-79
2022/03/29 06:04:07;;;;;;;45.33;20.00;;;;;;;20.52;40.20;99621.16;5061097;28;20189;-74
2022/03/29 06:06:36;;;;;;;39.13;18.97;;;;;;;21.06;38.70;99621.88;5069609;28;20223;-78
2022/03/29 06:09:03;;;;;;;41.83;19.20;;;;;;;21.57;36.59;99623.75;5067857;28;20684;-78
2022/03/29 06:11:31;;;;;;;42.00;18.87;;;;;;;21.93;36.15;99618.22;5071660;28;20196;-80
2022/03/29 06:13:58;;;;;;;25.07;16.80;;;;;;;22.04;37.51;99614.47;5071093;28;20192;-71
2022/03/29 06:16:25;;;;;;;29.47;16.77;;;;;;;22.39;36.72;99605.59;5053002;28;20591;-74
2022/03/29 06:18:52;;;;;;;27.53;18.50;;;;;;;22.46;33.00;99609.69;5051261;28;20250;-73
2022/03/29 06:21:21;;;;;;;33.57;18.03;;;;;;;21.97;34.79;99605.78;5067855;28;20207;-73
2022/03/29 06:23:48;;;;;;;33.30;19.70;;;;;;;21.73;35.17;99601.13;5070243;28;20195;-72
2022/03/29 06:26:14;;;;;;;34.07;18.10;;;;;;;21.77;36.30;99599.53;5070700;28;20196;-71
2022/03/29 06:28:43;;;;;;;39.87;19.57;;;;;;;22.02;35.08;99603.13;5069911;28;20192;-72
2022/03/29 06:51:47;;;;;;;58.03;18.90;;;;;;;21.86;35.05;99579.81;4983486;28;20234;-81
2022/03/29 07:12:48;;;;;;;29.67;17.00;;;;;;;23.25;32.64;99572.78;4975387;28;20282;-75
2022/03/29 07:15:15;;;;;;;59.43;18.50;;;;;;;23.01;31.91;99571.75;4991246;28;20294;-76
2022/03/29 07:17:41;;;;;;;27.67;16.17;;;;;;;22.79;31.67;99552.25;4993040;28;20674;-74
2022/03/29 07:20:09;;;;;;;24.33;15.00;;;;;;;22.86;33.59;99552.81;4987651;28;20257;-74
2022/03/29 07:22:36;;;;;;;27.13;15.17;;;;;;;23.18;31.12;99561.38;4988149;28;20196;-75
2022/03/29 07:25:05;;;;;;;29.07;14.93;;;;;;;23.32;31.43;99554.31;4999520;28;20256;-74
2022/03/29 07:27:32;;;;;;;21.27;15.77;;;;;;;23.68;29.73;99558.50;4980676;28;20200;-74
2022/03/29 07:30:00;;;;;;;19.73;14.70;;;;;;;23.21;30.87;99549.22;4981648;28;20226;-75
2022/03/29 07:32:28;;;;;;;81.10;17.43;;;;;;;23.10;33.50;99545.69;4994415;28;20265;-71
2022/03/29 07:34:55;;;;;;;29.47;13.40;;;;;;;23.38;33.09;99547.81;4995921;28;20223;-73
2022/03/29 07:37:23;;;;;;;32.97;14.30;;;;;;;23.74;31.21;99546.53;4993969;28;20191;-69
2022/03/29 07:39:53;;;;;;;25.43;14.07;;;;;;;23.79;28.71;99545.69;4994591;28;20195;-72
2022/03/29 07:42:22;;;;;;;24.50;13.90;;;;;;;23.85;31.65;99545.38;5003361;28;20578;-70
2022/03/29 07:44:50;;;;;;;15.20;12.83;;;;;;;23.98;28.29;99550.19;4999002;28;20200;-72
2022/03/29 07:47:19;;;;;;;23.83;13.43;;;;;;;24.08;29.71;99549.31;4977077;28;20279;-71
2022/03/29 07:49:46;;;;;;;67.53;17.30;;;;;;;23.70;29.01;99542.75;4974316;28;20546;-72
2022/03/29 07:52:13;;;;;;;15.93;12.97;;;;;;;23.47;30.05;99540.69;4975435;28;20199;-71
2022/03/29 07:54:40;;;;;;;19.33;13.00;;;;;;;23.57;28.96;99542.56;4974460;28;20202;-76
2022/03/29 07:57:08;;;;;;;14.00;11.77;;;;;;;24.03;30.48;99531.19;4974852;28;20293;-70
2022/03/29 07:59:37;;;;;;;24.20;14.33;;;;;;;24.28;28.45;99536.41;4975646;28;20580;-72
2022/03/29 08:02:05;;;;;;;16.93;13.33;;;;;;;24.19;28.22;99527.28;4994604;28;20211;-74
2022/03/29 08:04:32;;;;;;;18.10;12.27;;;;;;;24.42;28.83;99531.16;4974340;28;20202;-68
2022/03/29 08:06:59;;;;;;;16.87;13.87;;;;;;;24.45;27.48;99525.94;4974452;28;20252;-71
2022/03/29 08:09:27;;;;;;;19.50;13.80;;;;;;;24.13;27.23;99528.38;4977145;28;20197;-71
2022/03/29 08:11:55;;;;;;;18.93;14.47;;;;;;;24.01;26.95;99525.22;4993819;28;20191;-69
2022/03/29 08:14:22;;;;;;;19.50;11.70;;;;;;;24.07;28.04;99515.97;4994677;28;20657;-71
2022/03/29 08:16:50;;;;;;;12.97;10.37;;;;;;;24.48;28.71;99517.25;4994660;28;20291;-70
2022/03/29 08:19:17;;;;;;;16.83;12.50;;;;;;;24.52;26.67;99518.28;4991020;28;20197;-69
2022/03/29 08:21:49;;;;;;;24.33;12.63;;;;;;;24.22;26.20;99507.69;5004863;28;20208;-72
2022/03/29 08:24:16;;;;;;;15.60;12.70;;;;;;;23.91;26.69;99490.03;5014086;28;20192;-73
2022/03/29 08:26:43;;;;;;;23.37;13.63;;;;;;;24.16;26.45;99503.41;5013595;28;20636;-73
2022/03/29 08:29:11;;;;;;;25.70;12.37;;;;;;;24.22;26.59;99496.81;5013930;28;20200;-73
2022/03/29 08:31:38;;;;;;;18.63;11.83;;;;;;;23.99;26.54;99497.56;5014420;28;20203;-73
2022/03/29 08:34:07;;;;;;;20.80;12.70;;;;;;;23.91;26.80;99492.72;5013342;28;20700;-74
2022/03/29 08:36:34;;;;;;;22.47;11.67;;;;;;;23.83;27.25;99485.16;5013501;28;20260;-73
2022/03/29 08:39:02;;;;;;;23.37;11.30;;;;;;;23.98;27.03;99474.22;5013384;28;20249;-73
2022/03/29 08:41:36;;;;;;;15.63;11.33;;;;;;;24.09;26.89;99474.97;5013118;28;20214;-73
2022/03/29 08:44:02;;;;;;;34.43;13.53;;;;;;;24.27;26.93;99472.34;5006977;28;20280;-72
2022/03/29 08:46:33;;;;;;;17.63;11.53;;;;;;;24.42;26.51;99469.47;4983076;28;20202;-73
2022/03/29 08:49:00;;;;;;;19.77;12.07;;;;;;;24.53;25.87;99470.19;4974341;28;20208;-73
2022/03/29 08:51:29;;;;;;;15.40;11.50;;;;;;;24.58;26.10;99460.09;4974163;28;20661;-73
2022/03/29 08:53:56;;;;;;;10.23;9.33;;;;;;;24.67;26.08;99446.72;4974567;28;20252;-72
2022/03/29 08:56:22;;;;;;;16.67;10.17;;;;;;;24.92;26.04;99449.94;4974060;28;20222;-72
2022/03/29 08:58:50;;;;;;;22.33;9.50;;;;;;;25.28;25.00;99454.97;4973898;28;20733;-72
2022/03/29 09:01:19;;;;;;;25.43;8.90;;;;;;;25.19;24.92;99452.06;4974200;28;20317;-73
2022/03/29 09:03:47;;;;;;;30.00;9.37;;;;;;;25.10;24.94;99436.69;4973823;28;20198;-72
2022/03/29 09:06:14;;;;;;;11.30;8.93;;;;;;;25.05;25.30;99437.56;4974552;28;20578;-73
2022/03/29 09:08:46;;;;;;;16.23;9.10;;;;;;;24.96;25.27;99431.16;4973673;28;20631;-74
2022/03/29 09:11:14;;;;;;;12.53;7.07;;;;;;;25.24;31.76;99413.13;4984054;28;20222;-71
2022/03/29 09:13:41;;;;;;;14.97;8.33;;;;;;;24.94;26.41;99423.28;4993465;28;20198;-72
2022/03/29 09:16:26;;;;;;;20.70;8.33;;;;;;;25.11;26.32;99416.56;4992132;28;20277;-71
2022/03/29 09:18:55;;;;;;;10.77;8.20;;;;;;;25.30;24.28;99412.78;4978916;28;20256;-72
2022/03/29 09:21:24;;;;;;;7.50;6.73;;;;;;;25.56;25.34;99413.22;5008620;28;20237;-73
2022/03/29 09:24:07;;;;;;;12.77;7.23;;;;;;;25.73;25.82;99397.16;5012736;28;20587;-68
2022/03/29 09:26:34;;;;;;;11.87;6.90;;;;;;;25.98;25.46;99394.06;5012665;28;20674;-73
2022/03/29 09:29:01;;;;;;;7.50;6.80;;;;;;;25.92;23.42;99392.50;4983659;28;20270;-74
2022/03/29 09:31:28;;;;;;;11.47;7.70;;;;;;;25.83;23.79;99392.38;5008516;28;20186;-74
2022/03/29 09:34:15;;;;;;;8.43;6.77;;;;;;;25.79;24.61;99383.19;5009284;28;20198;-72
2022/03/29 09:36:44;;;;;;;10.23;6.43;;;;;;;25.54;26.17;99374.63;5012194;28;20213;-78
2022/03/29 09:39:30;;;;;;;8.63;7.17;;;;;;;25.74;23.19;99383.28;5010173;28;20197;-75
2022/03/29 09:41:59;;;;;;;11.10;7.73;;;;;;;25.08;24.71;99375.25;5010555;28;20595;-74
2022/03/29 09:44:35;;;;;;;9.53;7.27;;;;;;;25.14;26.61;99361.63;5000174;28;20292;-75
2022/03/29 09:47:04;;;;;;;10.40;9.07;;;;;;;25.43;24.86;99363.09;4991210;28;20197;-74
2022/03/29 09:49:48;;;;;;;10.67;8.37;;;;;;;25.51;24.77;99339.88;4988762;28;20312;-70
2022/03/29 09:52:17;;;;;;;9.47;7.40;;;;;;;25.83;25.51;99353.44;4981013;28;20208;-73
2022/03/29 09:55:06;;;;;;;10.30;7.73;;;;;;;26.19;24.76;99347.09;4990953;28;20626;-75
2022/03/29 09:57:36;;;;;;;11.60;7.30;;;;;;;26.35;24.33;99347.63;4990353;28;20202;-75
2022/03/29 10:00:07;;;;;;;9.87;8.17;;;;;;;26.42;23.42;99339.88;4996386;28;20261;-75
2022/03/29 10:02:36;;;;;;;8.63;7.87;;;;;;;26.34;23.07;99335.13;4990994;28;20222;-73
2022/03/29 10:05:04;;;;;;;9.33;6.80;;;;;;;26.30;23.87;99309.59;4982390;28;20199;-73
2022/03/29 10:07:35;;;;;;;14.87;8.30;;;;;;;26.17;23.70;99321.28;4976689;28;20194;-75
2022/03/29 10:10:04;;;;;;;14.67;8.87;;;;;;;25.99;23.79;99316.72;4991745;28;20710;-70
2022/03/29 10:12:31;;;;;;;10.23;9.23;;;;;;;25.64;24.16;99303.72;4991663;28;20644;-72
2022/03/29 10:14:59;;;;;;;16.73;9.03;;;;;;;25.73;24.69;99300.03;4988920;28;20198;-74
2022/03/29 10:17:27;;;;;;;14.77;10.00;;;;;;;25.95;24.47;99302.09;4976569;28;20231;-71
2022/03/29 10:19:56;;;;;;;27.17;10.87;;;;;;;25.85;24.33;99291.38;5010490;28;20688;-69
2022/03/29 10:22:23;;;;;;;12.83;8.33;;;;;;;25.89;25.07;99292.38;5012014;28;20190;-71
2022/03/29 10:24:49;;;;;;;17.73;8.97;;;;;;;26.10;24.38;99290.91;5007201;28;20215;-70
2022/03/29 10:27:20;;;;;;;23.03;10.00;;;;;;;25.56;24.95;99277.19;4992834;28;20662;-70
2022/03/29 10:29:47;;;;;;;13.47;9.73;;;;;;;25.66;24.58;99282.44;4996138;28;20632;-71
2022/03/29 10:32:29;;;;;;;18.30;10.77;;;;;;;25.72;25.00;99264.94;4996133;28;20194;-68
2022/03/29 10:35:07;;;;;;;22.30;9.27;;;;;;;25.66;25.76;99271.56;4995428;28;20677;-70
2022/03/29 10:37:52;;;;;;;8.97;8.07;;;;;;;25.90;26.57;99269.50;4995343;28;20689;-71
2022/03/29 10:40:36;;;;;;;33.07;10.30;;;;;;;26.00;24.22;99263.91;4998960;28;20277;-72
2022/03/29 10:43:29;;;;;;;13.10;9.00;;;;;;;25.90;24.92;99255.88;4994460;28;20187;-75
2022/03/29 10:45:58;;;;;;;14.70;8.37;;;;;;;25.83;25.26;99255.47;4993919;28;20670;-72
2022/03/29 10:48:25;;;;;;;13.23;9.43;;;;;;;26.07;24.23;99256.13;4994742;28;20190;-72
2022/03/29 10:50:58;;;;;;;18.77;9.37;;;;;;;26.04;23.83;99251.31;4994870;28;20257;-73
2022/03/29 10:53:27;;;;;;;11.77;8.50;;;;;;;26.03;23.40;99253.19;4994701;28;20666;-72
2022/03/29 10:56:16;;;;;;;11.63;7.00;;;;;;;25.92;24.36;99243.59;4994993;28;20591;-72
2022/03/29 10:59:15;;;;;;;16.37;8.17;;;;;;;26.06;25.42;99238.19;4996787;28;20194;-73
2022/03/29 11:01:42;;;;;;;13.27;8.80;;;;;;;26.34;23.82;99237.06;4973077;28;20195;-70
2022/03/29 11:04:16;;;;;;;14.50;8.20;;;;;;;26.51;23.81;99223.59;4976599;28;20270;-71
2022/03/29 11:07:10;;;;;;;10.33;8.83;;;;;;;26.48;22.76;99227.75;4975992;28;20258;-69
2022/03/29 11:09:38;;;;;;;16.93;8.13;;;;;;;26.47;23.94;99217.16;4976204;28;20317;-73
2022/03/29 11:12:06;;;;;;;9.27;8.10;;;;;;;26.38;23.82;99219.78;4992378;28;20199;-71
2022/03/29 11:14:39;;;;;;;10.17;6.90;;;;;;;26.42;24.63;99207.16;4995342;28;20198;-70
2022/03/29 11:17:40;;;;;;;13.83;8.10;;;;;;;26.63;24.10;99211.09;4995608;28;20225;-73
2022/03/29 11:20:32;;;;;;;13.47;7.83;;;;;;;26.11;23.87;99202.66;4975952;28;20648;-70
2022/03/29 11:23:04;;;;;;;9.50;6.73;;;;;;;26.17;24.07;99207.72;4975893;28;20683;-73
2022/03/29 11:25:38;;;;;;;10.93;7.60;;;;;;;26.10;23.43;99195.63;4975907;28;20196;-72
2022/03/29 11:28:09;;;;;;;13.13;7.83;;;;;;;25.95;23.87;99193.19;4976151;28;20195;-71
2022/03/29 11:30:37;;;;;;;13.93;7.53;;;;;;;25.87;24.18;99191.97;4975689;28;20231;-72
2022/03/29 11:33:08;;;;;;;15.70;8.60;;;;;;;25.72;23.30;99188.75;4976020;28;20199;-71
2022/03/29 11:35:36;;;;;;;11.93;7.83;;;;;;;25.27;24.04;99181.41;4976047;28;20199;-73
2022/03/29 11:38:10;;;;;;;14.77;7.63;;;;;;;25.25;25.21;99178.16;4975708;28;20210;-72
2022/03/29 11:40:38;;;;;;;29.23;8.47;;;;;;;25.26;24.44;99172.44;4993386;28;20195;-71
2022/03/29 11:43:10;;;;;;;10.33;7.10;;;;;;;25.25;25.45;99167.28;4994658;28;20273;-71
2022/03/29 11:45:40;;;;;;;14.47;8.27;;;;;;;25.17;24.33;99171.50;4975797;28;20310;-73
2022/03/29 11:48:12;;;;;;;9.53;7.17;;;;;;;24.96;23.95;99164.81;4974615;28;20195;-74
2022/03/29 11:50:43;;;;;;;9.87;7.03;;;;;;;25.02;26.16;99156.25;4990627;28;20194;-72
2022/03/29 11:53:18;;;;;;;10.80;8.27;;;;;;;25.20;23.82;99159.22;4994143;28;20191;-69
2022/03/29 11:55:56;;;;;;;7.90;7.20;;;;;;;25.35;25.07;99145.38;4995739;28;20197;-72
2022/03/29 11:58:24;;;;;;;14.27;6.90;;;;;;;25.50;23.99;99153.25;4994968;28;20199;-71
2022/03/29 12:00:52;;;;;;;13.37;8.13;;;;;;;25.63;24.32;99147.03;4982024;28;20199;-70
2022/03/29 12:03:29;;;;;;;10.23;7.80;;;;;;;25.35;23.94;99146.19;4981035;28;20195;-71
2022/03/29 12:06:11;;;;;;;10.63;7.90;;;;;;;25.12;24.01;99141.69;4989547;28;20630;-72
2022/03/29 12:08:46;;;;;;;14.70;6.97;;;;;;;24.95;25.48;99134.09;4988009;28;20203;-72
2022/03/29 12:11:13;;;;;;;17.90;8.10;;;;;;;24.79;24.27;99137.38;5002153;28;20292;-73
2022/03/29 12:13:40;;;;;;;11.10;6.90;;;;;;;24.61;25.59;99133.56;4993958;28;20202;-70